Accueil
METAR-TAF:

METAR-TAF

Aéroports :

Dar es Salam, Tanzanie

Aéroport international Julius Nyerere

latitude: 06-52S, longitude: 039-12E, altitude: 55 m

Observation

Le bulletin a été fait il y a 39 minutes, à 04:00 UTC
Vent 10 kt de nord
Température 27°C
Humidité 84%
Pression 1014 hPa
Visibilité 10 km ou plus
Nuages épars à une hauteur de 1400 ft

METAR: HTDA 120400Z 01010KT 9999 SCT014 27/24 Q1014 NOSIG

Heure: 07:39 (04:39 UTC)

Prévision

Le bulletin a été fait il y a 5 heures et 39 minutes, à 23:00 UTC
Prévision valable du 12 à 00 UTC au 13 à 06 UTC
Vent 10 kt de nord/nord-est
Visibilité 10 km ou plus
Nuages fragmentés à une hauteur de 1500 ft
Temporairement
du 12 à 07 UTC au 12 à 11 UTC
Nuages fragmentés à une hauteur de 1600 ft
Quelques nuages à une hauteur de 1700 ft, Cumulonimbus.
pluie

TAF: HTDA 112300Z 1200/1306 03010KT 9999 BKN015 TEMPO 1207/1211 RA BKN016 FEW017CB

Observations et prévisions météorologiques de plus de 4000 aéroports (messages METAR et TAF).

Les stations disponibles sont représentées par des disques jaunes et rouges sur la carte.

Passer la souris dessus pour voir le nom de la station.

Cliquer dessus pour voir les observations et prévisions météorologiques.

Pour changer de carte: cliquez sur les boutons verts avec une croix noire pour zoomer, sur le bouton vert avec un tiret pour effectuer un zoom arrière, ou sur les flèches vertes pour les cartes adjacentes.


METAR-TAF: